KAUS - Austin/Bergstrom Int, TX, US

Issued at 1121 UTC 20 Oct 2021
Updated at 1406 UTC 20 Oct 2021
Potential Impact None Slight Moderate High
Time1353Z 20/15Z 20/16Z 20/17Z 20/18Z 20/19Z 20/20Z 20/21Z 20/22Z 20/23Z 21/00Z 21/01Z 21/02Z 21/03Z>>
Type OBS PRVL PRVL PRVL PRVL PRVL PRVL PRVL PRVL PRVL PRVL PRVL PRVL PRVL
VIS 10 >6 >6 >6 >6 >6 >6 >6 >6 >6 >6 >6 >6 >6
CIG 35 15 25 25 -- -- -- -- -- -- -- -- -- --
Cover OVC BKN BKN BKN SCT SCT SCT SCT SCT SCT SCT SCT SCT SCT
FltCat VFR MVFR MVFR MVFR VFR VFR VFR VFR VFR VFR VFR VFR VFR VFR
WX -- -- -- -- -- -- -- -- -- -- -- -- -- --
WDir VRB 130 180 180 170 170 170 170 170 170 170 170 170 170
WSpd 0 3 5 5 5 5 5 5 5 5 5 5 5 5
WGst -- -- -- -- -- -- -- -- -- -- -- -- -- --
Raw TAF
KAUS 201121Z 2012/2118 VRB02KT P6SM BKN025
  FM201300 13003KT P6SM SCT007 BKN015
  FM201600 18005KT P6SM BKN025
  FM201800 17005KT P6SM SCT040
  FM211000 VRB02KT 4SM BR SCT007
  FM211400 VRB03KT P6SM SCT015


Raw METAR
KAUS 201353Z 00000KT 10SM OVC035 19/18 A3009 RMK AO2 SLP184 T01890183
KAUS 201253Z 00000KT 10SM OVC035 18/18 A3008 RMK AO2 SLP178 T01830183
KAUS 201153Z 00000KT 10SM OVC035 18/18 A3009 RMK AO2 SLP181 T01780178 10183 20150 53009

METAR Board
Radar Display
Forecast Discussion
For situational awareness. Not to be used for flight planning purposes.